Time;durP1;ratioP1;P1;durP2;ratioP2;P2;SDS_P1;SDS_P2;PMS_P1;PMS_P2;Temp;Humidity;BMP_temperature;BMP_pressure;BME280_temperature;BME280_humidity;BME280_pressure;Samples;Min_cycle;Max_cycle;Signal;HPM_P1;HPM_P2
2022/10/23 00:01:18;;;;;;;14.07;6.68;;;;;;;6.84;70.88;99155.16;4990107;28;20121;-64
2022/10/23 00:03:44;;;;;;;12.05;6.47;;;;;;;6.87;70.49;99146.00;4991921;28;20042;-64
2022/10/23 00:06:11;;;;;;;11.98;6.55;;;;;;;6.83;71.16;99149.09;4991420;28;20054;-64
2022/10/23 00:08:37;;;;;;;13.15;6.25;;;;;;;6.81;70.53;99132.69;4991481;28;20043;-65
2022/10/23 00:11:11;;;;;;;14.18;6.40;;;;;;;6.82;70.58;99139.59;4991721;28;20043;-64
2022/10/23 00:13:37;;;;;;;14.18;6.82;;;;;;;6.85;70.85;99140.16;4990636;28;20046;-64
2022/10/23 00:16:03;;;;;;;11.63;6.75;;;;;;;6.73;71.01;99129.53;4991634;28;20046;-65
2022/10/23 00:18:29;;;;;;;11.90;6.63;;;;;;;6.66;71.35;99131.44;4990583;28;20042;-65
2022/10/23 00:20:55;;;;;;;10.52;6.22;;;;;;;6.67;71.04;99125.94;4991506;28;20376;-65
2022/10/23 00:23:21;;;;;;;10.65;6.68;;;;;;;6.71;71.33;99126.31;4991388;28;20046;-65
2022/10/23 00:25:46;;;;;;;13.07;6.65;;;;;;;6.62;71.05;99125.81;4991394;28;20042;-64
2022/10/23 00:28:12;;;;;;;13.60;6.78;;;;;;;6.60;71.56;99128.63;4989932;28;20088;-64
2022/10/23 00:30:38;;;;;;;11.13;7.10;;;;;;;6.62;71.38;99125.81;4989980;28;20050;-65
2022/10/23 00:33:04;;;;;;;12.10;6.85;;;;;;;6.62;71.17;99122.34;4990039;28;20117;-65
2022/10/23 00:35:30;;;;;;;11.82;6.35;;;;;;;6.65;70.94;99114.84;4991438;28;20189;-64
2022/10/23 00:37:56;;;;;;;11.82;6.63;;;;;;;6.66;71.03;99107.72;4990101;28;20065;-65
2022/10/23 00:40:21;;;;;;;14.65;8.68;;;;;;;6.68;71.26;99113.59;4973723;28;20100;-63
2022/10/23 00:42:47;;;;;;;13.07;7.28;;;;;;;6.69;71.04;99100.19;4991525;28;20073;-65
2022/10/23 00:45:41;;;;;;;12.55;7.20;;;;;;;6.65;71.23;99104.28;4991495;28;20065;-64
2022/10/23 00:48:07;;;;;;;11.88;6.80;;;;;;;6.56;71.54;99101.13;4992304;28;20073;-64
2022/10/23 00:50:33;;;;;;;12.38;6.90;;;;;;;6.55;71.26;99096.88;4993414;28;20508;-64
2022/10/23 00:53:01;;;;;;;11.05;7.05;;;;;;;6.53;71.37;99090.22;4993414;28;20046;-65
2022/10/23 00:55:27;;;;;;;11.77;6.97;;;;;;;6.51;72.08;99089.66;4994562;28;20093;-64
2022/10/23 00:57:53;;;;;;;12.70;6.80;;;;;;;6.48;71.60;99088.25;4977179;28;20054;-65
2022/10/23 01:00:39;;;;;;;9.95;6.80;;;;;;;6.45;71.77;99088.69;4994603;28;20418;-64
2022/10/23 01:03:05;;;;;;;11.50;7.10;;;;;;;6.39;72.26;99076.41;4976906;28;20492;-65
2022/10/23 01:05:35;;;;;;;14.20;7.57;;;;;;;6.36;72.01;99082.09;5008806;28;20132;-64
2022/10/23 01:08:06;;;;;;;15.05;7.47;;;;;;;6.30;72.69;99080.34;5013304;28;20092;-64
2022/10/23 01:10:35;;;;;;;13.20;7.00;;;;;;;6.29;73.01;99082.13;4992610;28;20504;-65
2022/10/23 01:13:37;;;;;;;11.38;7.13;;;;;;;6.28;72.87;99080.53;4993889;28;20042;-64
2022/10/23 01:16:23;;;;;;;12.65;7.10;;;;;;;6.28;72.19;99082.38;4992943;28;20065;-64
2022/10/23 01:18:59;;;;;;;12.93;6.70;;;;;;;6.32;72.71;99067.75;5007523;28;20057;-64
2022/10/23 01:21:38;;;;;;;11.32;6.28;;;;;;;6.32;72.44;99080.91;5012471;28;20054;-63
2022/10/23 01:24:21;;;;;;;13.27;6.82;;;;;;;6.26;72.88;99074.69;5013856;28;20045;-65
2022/10/23 01:27:18;;;;;;;12.95;6.88;;;;;;;6.22;72.80;99073.50;5012396;28;20515;-65
2022/10/23 01:30:06;;;;;;;18.17;7.63;;;;;;;6.17;72.38;99073.34;5013456;28;20045;-64
2022/10/23 01:32:56;;;;;;;12.90;7.25;;;;;;;6.07;72.70;99063.31;5012308;28;20414;-65
2022/10/23 01:35:32;;;;;;;10.48;6.63;;;;;;;6.04;72.80;99060.31;5028567;28;20062;-65
2022/10/23 01:38:13;;;;;;;14.45;7.28;;;;;;;5.99;73.28;99063.59;5013326;28;20515;-65
2022/10/23 01:41:01;;;;;;;13.20;7.13;;;;;;;5.91;73.18;99061.19;5011934;28;20061;-64
2022/10/23 01:43:31;;;;;;;16.48;7.88;;;;;;;5.83;73.69;99056.22;5012094;28;20459;-65
2022/10/23 01:46:01;;;;;;;16.30;7.60;;;;;;;5.71;73.91;99053.47;5011911;28;20057;-65
2022/10/23 01:48:29;;;;;;;11.25;6.97;;;;;;;5.60;74.50;99052.31;5012054;28;20510;-65
2022/10/23 01:50:58;;;;;;;12.20;7.50;;;;;;;5.47;74.91;99050.59;5011965;28;20057;-64
2022/10/23 01:53:26;;;;;;;12.73;7.03;;;;;;;5.37;74.61;99047.59;5011911;28;20046;-64
2022/10/23 01:55:52;;;;;;;12.65;6.88;;;;;;;5.26;75.52;99044.84;5028183;28;20423;-65
2022/10/23 01:58:23;;;;;;;19.98;8.25;;;;;;;5.15;75.72;99035.84;5011637;28;20112;-64
2022/10/23 02:00:50;;;;;;;13.15;7.10;;;;;;;5.07;76.03;99043.94;5011478;28;20557;-64
2022/10/23 02:03:17;;;;;;;13.32;7.55;;;;;;;4.95;76.25;99034.09;5011626;28;20048;-64
2022/10/23 02:05:43;;;;;;;15.35;7.93;;;;;;;4.89;77.13;99031.50;5028146;28;20050;-65
2022/10/23 02:08:09;;;;;;;14.50;7.00;;;;;;;4.83;76.71;99024.47;5011540;28;20046;-65
2022/10/23 02:10:51;;;;;;;14.30;7.35;;;;;;;4.81;76.63;99032.53;4995024;28;20038;-64
2022/10/23 02:13:47;;;;;;;13.00;7.53;;;;;;;4.74;76.64;99026.53;5011484;28;20045;-65
2022/10/23 02:16:39;;;;;;;14.15;7.35;;;;;;;4.71;77.37;99022.50;4995445;28;20058;-65
2022/10/23 02:19:18;;;;;;;12.27;7.53;;;;;;;4.61;77.97;99024.72;5027727;28;20503;-64
2022/10/23 02:21:55;;;;;;;12.55;7.35;;;;;;;4.52;78.04;99018.91;5012755;28;20045;-64
2022/10/23 02:24:29;;;;;;;16.42;7.28;;;;;;;4.51;77.62;99027.81;5011613;28;20045;-65
2022/10/23 02:26:59;;;;;;;14.13;7.13;;;;;;;4.44;77.64;99021.78;5011457;28;20157;-65
2022/10/23 02:29:48;;;;;;;14.55;7.32;;;;;;;4.41;78.17;99018.72;5011429;28;20042;-64
2022/10/23 02:32:16;;;;;;;16.90;7.75;;;;;;;4.38;78.40;99019.94;5011136;28;20054;-64
2022/10/23 02:34:42;;;;;;;16.02;7.70;;;;;;;4.36;78.78;99027.25;5011041;28;20431;-65
2022/10/23 02:37:09;;;;;;;14.15;8.20;;;;;;;4.34;79.11;99024.00;5011124;28;20052;-64
2022/10/23 02:39:35;;;;;;;16.00;8.18;;;;;;;4.27;78.74;99018.78;5010780;28;20050;-65
2022/10/23 02:42:18;;;;;;;13.57;7.68;;;;;;;4.26;78.88;99021.59;5011040;28;20045;-65
2022/10/23 02:45:00;;;;;;;19.88;8.48;;;;;;;4.19;79.26;99013.75;5011158;28;20045;-63
2022/10/23 02:47:50;;;;;;;17.50;8.13;;;;;;;4.16;79.20;99021.22;5011084;28;20053;-64
2022/10/23 02:50:33;;;;;;;18.80;8.35;;;;;;;4.13;79.79;99011.16;5012001;28;20502;-64
2022/10/23 02:53:10;;;;;;;14.98;8.30;;;;;;;4.10;79.50;99002.66;5011923;28;20038;-65
2022/10/23 02:55:47;;;;;;;16.05;8.38;;;;;;;4.13;79.13;99003.28;5010628;28;20129;-64
2022/10/23 02:58:25;;;;;;;18.65;8.15;;;;;;;4.13;79.71;99011.94;5010685;28;20058;-65
2022/10/23 03:01:05;;;;;;;14.77;8.40;;;;;;;4.06;79.28;99000.69;5010520;28;20046;-65
2022/10/23 03:03:35;;;;;;;16.67;8.30;;;;;;;4.10;78.75;99001.88;5010670;28;20056;-65
2022/10/23 03:06:01;;;;;;;14.07;7.70;;;;;;;4.07;79.10;98992.59;4994144;28;20042;-65
2022/10/23 03:08:27;;;;;;;20.58;8.90;;;;;;;4.07;78.80;98994.41;5010016;28;20046;-65
2022/10/23 03:10:52;;;;;;;17.65;8.75;;;;;;;4.03;79.13;98986.16;5027158;28;20084;-65
2022/10/23 03:13:20;;;;;;;22.73;10.40;;;;;;;4.06;78.46;98984.94;5010606;28;20058;-64
2022/10/23 03:15:45;;;;;;;22.63;9.93;;;;;;;4.03;78.78;98978.28;5027100;28;20049;-66
2022/10/23 03:18:13;;;;;;;23.52;10.20;;;;;;;4.02;78.69;98973.22;5010579;28;20508;-65
2022/10/23 03:20:43;;;;;;;21.23;9.98;;;;;;;4.02;78.45;98967.97;5010631;28;20041;-65
2022/10/23 03:23:11;;;;;;;21.83;9.85;;;;;;;4.03;79.07;98969.56;4994413;28;20038;-65
2022/10/23 03:25:37;;;;;;;25.00;9.25;;;;;;;4.01;78.80;98961.94;5000848;28;20464;-65
2022/10/23 03:28:03;;;;;;;17.95;8.52;;;;;;;3.99;78.93;98965.75;4990802;28;20042;-65
2022/10/23 03:30:33;;;;;;;20.73;9.02;;;;;;;3.96;78.83;98969.59;4990728;28;20077;-64
2022/10/23 03:32:59;;;;;;;16.98;9.18;;;;;;;3.96;79.48;98958.31;4974555;28;20516;-65
2022/10/23 03:35:25;;;;;;;18.40;8.95;;;;;;;3.96;78.60;98961.72;4992147;28;20053;-64
2022/10/23 03:37:50;;;;;;;18.23;9.02;;;;;;;3.95;78.66;98961.94;4990999;28;20378;-64
2022/10/23 03:40:16;;;;;;;17.88;8.65;;;;;;;3.95;79.06;98962.75;4990625;28;20499;-64
2022/10/23 03:42:41;;;;;;;17.45;8.15;;;;;;;3.93;79.34;98963.97;4990644;28;20042;-64
2022/10/23 03:45:10;;;;;;;16.83;8.77;;;;;;;3.90;79.23;98959.13;4991788;28;20069;-65
2022/10/23 03:47:39;;;;;;;15.93;9.05;;;;;;;3.89;79.51;98958.34;4990830;28;20176;-65
2022/10/23 03:50:07;;;;;;;17.25;8.57;;;;;;;3.90;79.09;98954.69;4990557;28;20046;-64
2022/10/23 03:52:33;;;;;;;15.05;8.63;;;;;;;3.89;79.30;98954.91;5006931;28;20053;-65
2022/10/23 03:54:58;;;;;;;15.60;8.38;;;;;;;3.89;79.18;98949.66;5009834;28;20415;-65
2022/10/23 03:57:24;;;;;;;14.82;8.27;;;;;;;3.86;79.04;98956.13;5010194;28;20066;-64
2022/10/23 03:59:50;;;;;;;16.48;8.60;;;;;;;3.87;79.53;98949.84;5010034;28;20060;-65
2022/10/23 04:02:16;;;;;;;17.08;8.85;;;;;;;3.87;79.25;98953.28;5026584;28;20049;-64
2022/10/23 04:04:42;;;;;;;18.27;9.35;;;;;;;3.90;79.55;98956.50;5026430;28;20080;-65
2022/10/23 04:07:08;;;;;;;17.75;8.65;;;;;;;3.86;79.67;98943.00;5009789;28;20129;-64
2022/10/23 04:09:33;;;;;;;23.13;10.10;;;;;;;3.89;79.43;98945.22;5011217;28;20517;-65
2022/10/23 04:12:02;;;;;;;18.85;9.07;;;;;;;3.87;79.62;98952.47;5026466;28;20108;-64
2022/10/23 04:14:27;;;;;;;16.52;8.80;;;;;;;3.84;79.16;98948.44;5010263;28;20046;-65
2022/10/23 04:16:53;;;;;;;19.00;9.38;;;;;;;3.84;79.43;98947.63;5011459;28;20480;-64
2022/10/23 04:19:19;;;;;;;19.13;9.73;;;;;;;3.84;79.61;98945.03;4993802;28;20185;-64
2022/10/23 04:21:45;;;;;;;15.98;8.90;;;;;;;3.81;79.81;98937.56;5013267;28;20054;-64
2022/10/23 04:24:10;;;;;;;18.15;9.50;;;;;;;3.82;79.30;98945.25;5014578;28;20482;-64
2022/10/23 04:26:36;;;;;;;16.58;9.80;;;;;;;3.83;79.80;98943.41;5029790;28;20107;-65
2022/10/23 04:29:02;;;;;;;19.05;9.30;;;;;;;3.80;79.52;98949.88;5013371;28;20049;-64
2022/10/23 04:31:28;;;;;;;65.03;37.17;;;;;;;3.84;80.94;98952.88;5029467;28;20088;-65
2022/10/23 04:33:54;;;;;;;21.67;10.80;;;;;;;3.83;79.78;98946.84;5013329;28;20069;-64
2022/10/23 04:36:27;;;;;;;17.45;10.02;;;;;;;3.84;79.75;98940.56;5013420;28;20049;-65
2022/10/23 04:38:53;;;;;;;18.33;9.73;;;;;;;3.85;79.56;98946.63;5029839;28;20042;-64
2022/10/23 04:41:19;;;;;;;15.63;9.85;;;;;;;3.87;79.40;98944.59;5013250;28;20046;-65
2022/10/23 04:43:45;;;;;;;19.73;9.95;;;;;;;3.87;79.42;98940.16;5014431;28;20474;-64
2022/10/23 04:46:12;;;;;;;15.38;9.48;;;;;;;3.89;79.33;98933.94;5013220;28;20046;-64
2022/10/23 04:48:38;;;;;;;19.80;10.80;;;;;;;3.90;79.37;98938.94;5013227;28;20038;-65
2022/10/23 04:51:32;;;;;;;20.23;10.75;;;;;;;3.94;79.94;98936.72;5009640;28;20054;-64
2022/10/23 04:54:05;;;;;;;21.63;10.57;;;;;;;3.95;79.87;98933.09;5013074;28;20157;-67
2022/10/23 04:56:42;;;;;;;17.65;10.32;;;;;;;3.95;80.05;98930.47;5012881;28;20116;-65
2022/10/23 04:59:13;;;;;;;20.63;10.27;;;;;;;4.00;79.45;98933.28;5014343;28;20048;-65
2022/10/23 05:01:39;;;;;;;21.20;10.45;;;;;;;4.00;79.00;98931.47;5012955;28;20052;-65
2022/10/23 05:04:07;;;;;;;17.58;10.43;;;;;;;4.02;79.54;98928.63;5012905;28;20500;-65
2022/10/23 05:06:44;;;;;;;20.70;10.20;;;;;;;4.08;79.34;98930.44;5029373;28;20096;-65
2022/10/23 05:09:15;;;;;;;19.48;10.82;;;;;;;4.12;79.53;98923.78;5012811;28;20049;-66
2022/10/23 05:11:58;;;;;;;19.77;10.65;;;;;;;4.19;78.44;98932.41;5012915;28;20474;-65
2022/10/23 05:14:23;;;;;;;21.35;11.20;;;;;;;4.21;78.74;98922.53;5012810;28;20042;-66
2022/10/23 05:16:59;;;;;;;18.92;10.40;;;;;;;4.26;78.52;98927.94;5014249;28;20129;-66
2022/10/23 05:19:28;;;;;;;19.75;10.23;;;;;;;4.27;78.24;98931.41;4996459;28;20562;-66
2022/10/23 05:21:55;;;;;;;23.90;11.15;;;;;;;4.28;78.64;98927.75;5029064;28;20053;-66
2022/10/23 05:24:24;;;;;;;;;;;;;;;4.33;78.64;98936.63;4996638;28;20038;-66
2022/10/23 05:26:55;;;;;;;26.05;10.20;;;;;;;4.35;78.31;98930.34;4997015;28;20390;-67
2022/10/23 05:29:22;;;;;;;19.35;10.35;;;;;;;4.43;78.32;98932.75;5012373;28;20458;-66
2022/10/23 05:31:50;;;;;;;18.73;10.30;;;;;;;4.58;78.33;98930.66;4995427;28;20057;-68
2022/10/23 05:34:18;;;;;;;22.85;10.90;;;;;;;4.69;77.81;98930.00;5012347;28;20060;-67
2022/10/23 05:36:45;;;;;;;17.58;9.95;;;;;;;4.81;76.73;98931.94;5012090;28;20520;-66
2022/10/23 05:39:13;;;;;;;18.25;10.65;;;;;;;4.97;76.37;98926.19;5012164;28;20081;-68
2022/10/23 05:41:38;;;;;;;19.83;10.23;;;;;;;5.14;75.75;98923.84;5028532;28;20172;-66
2022/10/23 05:44:05;;;;;;;15.30;9.32;;;;;;;5.29;75.97;98934.06;5013505;28;20048;-66
2022/10/23 05:46:51;;;;;;;17.35;9.48;;;;;;;5.39;74.67;98919.41;5025614;28;20053;-67
2022/10/23 05:49:25;;;;;;;19.08;10.57;;;;;;;5.45;74.18;98921.19;5012009;28;20107;-65
2022/10/23 05:52:11;;;;;;;20.77;9.68;;;;;;;5.54;74.11;98926.97;5006994;28;20516;-66
2022/10/23 05:55:09;;;;;;;20.20;11.15;;;;;;;5.62;73.59;98910.94;4992213;28;20475;-64
2022/10/23 05:57:55;;;;;;;17.75;9.77;;;;;;;5.68;73.23;98915.31;4972905;28;20420;-64
2022/10/23 06:00:50;;;;;;;18.65;9.75;;;;;;;5.75;73.40;98911.81;4972588;28;20055;-66
2022/10/23 06:03:37;;;;;;;18.73;11.02;;;;;;;5.66;73.20;98916.56;4986442;28;20046;-65
2022/10/23 06:06:06;;;;;;;;;;;;;;;5.69;73.70;98905.59;4989433;28;20050;-65
2022/10/23 06:08:44;;;;;;;19.60;10.65;;;;;;;5.67;73.54;98891.84;4988935;28;20395;-67
2022/10/23 06:11:12;;;;;;;17.02;10.02;;;;;;;5.72;73.70;98896.47;4989022;28;20364;-66
2022/10/23 06:13:41;;;;;;;17.67;9.65;;;;;;;5.72;73.29;98892.03;4988843;28;20093;-65
2022/10/23 06:16:18;;;;;;;16.35;10.30;;;;;;;5.76;73.39;98887.91;4988764;28;20047;-65
2022/10/23 06:18:44;;;;;;;19.60;11.10;;;;;;;5.89;72.54;98887.00;4972582;28;20077;-65
2022/10/23 06:21:14;;;;;;;17.70;10.43;;;;;;;6.04;72.55;98884.81;4972386;28;20051;-64
2022/10/23 06:23:42;;;;;;;17.55;10.55;;;;;;;6.17;72.27;98883.84;4988677;28;20057;-64
2022/10/23 06:26:26;;;;;;;21.00;9.57;;;;;;;6.30;71.47;98869.75;4973875;28;20125;-64
2022/10/23 06:29:12;;;;;;;17.63;9.70;;;;;;;6.48;71.39;98880.25;4975929;28;20058;-65
2022/10/23 06:31:40;;;;;;;18.20;9.73;;;;;;;6.64;70.72;98878.81;4972069;28;20059;-65
2022/10/23 06:34:05;;;;;;;20.17;10.25;;;;;;;6.73;70.48;98874.81;4988657;28;20126;-65
2022/10/23 06:36:32;;;;;;;21.13;10.43;;;;;;;6.78;70.38;98866.25;4988443;28;20153;-65
2022/10/23 06:39:16;;;;;;;17.92;9.85;;;;;;;6.89;69.42;98862.06;4973472;28;20137;-67
2022/10/23 06:42:02;;;;;;;20.77;10.50;;;;;;;6.99;69.23;98860.44;4988368;28;20174;-64
2022/10/23 06:44:51;;;;;;;22.42;10.80;;;;;;;7.05;68.88;98854.28;4980510;28;20528;-66
2022/10/23 06:47:33;;;;;;;19.42;9.50;;;;;;;7.17;68.63;98843.75;4971995;28;20531;-67
2022/10/23 06:50:19;;;;;;;20.55;9.45;;;;;;;7.21;68.49;98846.75;4950880;28;20535;-65
2022/10/23 06:52:47;;;;;;;20.75;9.95;;;;;;;7.15;68.60;98840.56;4987868;28;20042;-66
2022/10/23 06:55:18;;;;;;;16.83;9.48;;;;;;;7.16;68.36;98844.78;4976636;28;20053;-66
2022/10/23 06:57:45;;;;;;;19.00;9.88;;;;;;;7.24;68.61;98846.28;4989569;28;20547;-64
2022/10/23 07:00:11;;;;;;;19.15;10.05;;;;;;;7.32;68.43;98842.50;5002630;28;20045;-66
2022/10/23 07:02:51;;;;;;;20.33;10.63;;;;;;;7.44;67.83;98846.75;4987350;28;20042;-65
2022/10/23 07:05:18;;;;;;;18.40;9.77;;;;;;;7.59;67.16;98840.19;5022748;28;20421;-66
2022/10/23 07:07:44;;;;;;;17.17;10.20;;;;;;;7.59;67.39;98838.38;5027376;28;20068;-62
2022/10/23 07:10:12;;;;;;;20.27;10.50;;;;;;;7.71;67.31;98831.22;4998546;28;20507;-63
2022/10/23 07:12:43;;;;;;;23.33;10.50;;;;;;;7.79;66.46;98837.16;4959760;28;20053;-65
2022/10/23 07:15:45;;;;;;;19.40;10.00;;;;;;;7.76;66.90;98825.25;4974158;28;20484;-66
2022/10/23 07:18:15;;;;;;;27.10;10.35;;;;;;;7.73;66.65;98821.25;4964378;28;20427;-64
2022/10/23 07:21:16;;;;;;;19.38;9.90;;;;;;;7.68;66.84;98826.44;4971701;28;20054;-66
2022/10/23 07:23:42;;;;;;;19.67;10.70;;;;;;;7.67;67.23;98830.06;4974481;28;20043;-66
2022/10/23 07:26:14;;;;;;;23.00;10.65;;;;;;;7.74;66.85;98824.69;5010377;28;20503;-69
2022/10/23 07:28:42;;;;;;;18.80;10.60;;;;;;;7.71;67.08;98818.03;4994214;28;20454;-65
2022/10/23 07:31:08;;;;;;;17.63;10.38;;;;;;;7.73;66.80;98817.78;4994309;28;20073;-66
2022/10/23 07:33:54;;;;;;;18.85;10.18;;;;;;;7.79;67.03;98821.34;5010221;28;20060;-65
2022/10/23 07:36:20;;;;;;;21.55;10.70;;;;;;;7.91;66.59;98815.03;5010113;28;20045;-63
2022/10/23 07:38:46;;;;;;;17.50;10.57;;;;;;;8.00;66.50;98826.03;4984428;28;20049;-63
2022/10/23 07:41:12;;;;;;;18.70;10.20;;;;;;;8.10;66.11;98815.63;5009739;28;20136;-62
2022/10/23 07:43:38;;;;;;;19.15;10.38;;;;;;;8.16;66.01;98812.06;5009994;28;20088;-64
2022/10/23 07:46:04;;;;;;;20.15;10.60;;;;;;;8.17;66.01;98816.28;5009995;28;20049;-64
2022/10/23 07:48:38;;;;;;;;;;;;;;;8.17;66.24;98818.13;5010477;28;20113;-62
2022/10/23 07:51:15;;;;;;;20.10;11.07;;;;;;;8.16;66.05;98813.91;5026310;28;19926;-61
2022/10/23 07:53:46;;;;;;;20.10;10.63;;;;;;;8.19;66.34;98811.59;5011121;28;20034;-62
2022/10/23 07:56:38;;;;;;;22.02;9.90;;;;;;;8.22;65.67;98809.53;4978125;28;20046;-62
2022/10/23 07:59:16;;;;;;;18.70;11.25;;;;;;;8.23;65.89;98813.75;4967928;28;20073;-63
2022/10/23 08:01:49;;;;;;;21.35;10.77;;;;;;;8.23;66.52;98804.00;5013961;28;20046;-63
2022/10/23 08:04:15;;;;;;;24.38;12.40;;;;;;;8.32;65.99;98801.78;4994943;28;20180;-64
2022/10/23 08:06:48;;;;;;;25.65;12.25;;;;;;;8.38;65.84;98800.81;4994151;28;20054;-63
2022/10/23 08:09:15;;;;;;;24.27;12.05;;;;;;;8.52;65.75;98804.81;5012174;28;20173;-65
2022/10/23 08:11:42;;;;;;;19.48;10.68;;;;;;;8.48;65.62;98800.25;5014155;28;20118;-64
2022/10/23 08:14:10;;;;;;;24.77;13.50;;;;;;;8.47;65.67;98799.47;5015240;28;20115;-64
2022/10/23 08:16:38;;;;;;;23.30;10.77;;;;;;;8.51;65.60;98797.94;5013741;28;20042;-65
2022/10/23 08:19:07;;;;;;;20.15;11.48;;;;;;;8.49;65.40;98799.19;5013856;28;20038;-63
2022/10/23 08:21:35;;;;;;;22.42;11.63;;;;;;;8.51;65.45;98797.13;5013340;28;20104;-63
2022/10/23 08:24:02;;;;;;;20.50;11.80;;;;;;;8.48;66.13;98801.03;4993875;28;20053;-64
2022/10/23 08:26:29;;;;;;;25.88;12.15;;;;;;;8.40;66.34;98796.16;5009771;28;20046;-62
2022/10/23 08:28:57;;;;;;;22.73;12.10;;;;;;;8.35;66.31;98796.00;5029951;28;20497;-64
2022/10/23 08:31:24;;;;;;;21.33;12.00;;;;;;;8.28;67.28;98787.44;5001590;28;20101;-64
2022/10/23 08:34:09;;;;;;;20.52;11.65;;;;;;;8.32;66.46;98788.56;4995095;28;20042;-64
2022/10/23 08:36:38;;;;;;;23.10;11.32;;;;;;;8.27;67.23;98796.41;4999512;28;20455;-64
2022/10/23 08:39:05;;;;;;;21.00;11.82;;;;;;;8.34;66.63;98791.78;4974792;28;20042;-64
2022/10/23 08:41:41;;;;;;;28.48;12.50;;;;;;;8.39;66.24;98786.63;4973651;28;20054;-65
2022/10/23 08:44:28;;;;;;;21.92;12.30;;;;;;;8.46;66.61;98781.19;4974229;28;20061;-64
2022/10/23 08:46:58;;;;;;;25.15;12.02;;;;;;;8.48;66.45;98792.31;4997654;28;20443;-64
2022/10/23 08:49:46;;;;;;;23.75;11.93;;;;;;;8.52;67.18;98782.88;4996285;28;20058;-63
2022/10/23 08:52:31;;;;;;;27.67;11.93;;;;;;;8.53;66.17;98780.00;5029780;28;20049;-65
2022/10/23 08:55:16;;;;;;;27.42;12.65;;;;;;;8.51;66.89;98786.56;5012910;28;20533;-65
2022/10/23 08:58:05;;;;;;;28.73;13.73;;;;;;;8.50;66.73;98784.94;5014431;28;20065;-64
2022/10/23 09:00:32;;;;;;;31.85;13.73;;;;;;;8.41;67.06;98771.31;5013899;28;20056;-64
2022/10/23 09:03:00;;;;;;;29.23;14.48;;;;;;;8.46;67.08;98774.06;5014282;28;20046;-64
2022/10/23 09:05:35;;;;;;;29.02;13.57;;;;;;;8.49;66.58;98772.78;5013522;28;20056;-64
2022/10/23 09:08:23;;;;;;;30.58;13.25;;;;;;;8.51;66.33;98771.50;5012647;28;20053;-64
2022/10/23 09:11:04;;;;;;;25.02;13.23;;;;;;;8.53;67.06;98771.25;5013775;28;20038;-64
2022/10/23 09:13:49;;;;;;;25.15;13.50;;;;;;;8.56;66.88;98765.50;5014318;28;20077;-65
2022/10/23 09:16:15;;;;;;;30.45;13.45;;;;;;;8.56;66.70;98766.31;4996201;28;20046;-65
2022/10/23 09:18:41;;;;;;;24.65;12.52;;;;;;;8.55;66.35;98764.69;5013562;28;20065;-65
2022/10/23 09:21:10;;;;;;;27.00;13.30;;;;;;;8.49;65.96;98752.44;5012166;28;20510;-65
2022/10/23 09:23:36;;;;;;;28.30;13.48;;;;;;;8.53;66.17;98750.13;5012869;28;20104;-65
2022/10/23 09:26:11;;;;;;;27.15;13.40;;;;;;;8.50;66.35;98756.72;5013380;28;20092;-65
2022/10/23 09:28:47;;;;;;;25.08;13.35;;;;;;;8.39;67.22;98754.94;5012604;28;20046;-64
2022/10/23 09:31:15;;;;;;;25.17;13.60;;;;;;;8.41;67.29;98742.28;5012414;28;20073;-66
2022/10/23 09:33:52;;;;;;;28.83;13.77;;;;;;;8.51;67.49;98749.59;5012958;28;20054;-64
2022/10/23 09:36:20;;;;;;;30.52;14.60;;;;;;;8.46;67.71;98741.56;5008208;28;20073;-66
2022/10/23 09:38:46;;;;;;;31.65;15.40;;;;;;;8.48;67.36;98739.50;5013722;28;20045;-65
2022/10/23 09:41:27;;;;;;;27.15;14.13;;;;;;;8.44;67.21;98743.63;5013390;28;20111;-65
2022/10/23 09:44:14;;;;;;;30.23;14.07;;;;;;;8.36;67.60;98740.34;5012476;28;20045;-65
2022/10/23 09:46:43;;;;;;;27.85;14.18;;;;;;;8.30;67.86;98735.22;5011760;28;20426;-65
2022/10/23 09:49:29;;;;;;;29.48;14.35;;;;;;;8.27;67.97;98738.34;4994644;28;20046;-65
2022/10/23 09:52:06;;;;;;;38.13;15.65;;;;;;;8.25;68.21;98727.19;5012426;28;20210;-65
2022/10/23 09:54:37;;;;;;;34.45;16.50;;;;;;;8.27;68.46;98725.94;4991572;28;20085;-64
2022/10/23 09:57:15;;;;;;;;;;;;;;;8.37;68.27;98730.56;5009418;28;20506;-64
2022/10/23 09:59:54;;;;;;;32.15;14.45;;;;;;;8.41;67.87;98719.31;4886730;28;20009;-65
2022/10/23 10:02:34;;;;;;;27.15;14.30;;;;;;;8.29;67.61;98715.09;4889556;28;20418;-65
2022/10/23 10:05:33;;;;;;;30.92;14.38;;;;;;;8.25;67.46;98720.06;4845802;28;20268;-65
2022/10/23 10:08:19;;;;;;;30.50;15.90;;;;;;;8.26;68.51;98718.22;4850660;28;20590;-65
2022/10/23 10:11:00;;;;;;;36.90;16.08;;;;;;;8.23;68.47;98708.13;4854420;28;20568;-65
2022/10/23 10:13:32;;;;;;;32.92;15.48;;;;;;;8.13;68.34;98711.41;4854623;28;20168;-66
2022/10/23 10:16:02;;;;;;;39.85;17.48;;;;;;;8.03;68.80;98703.31;4860315;28;20486;-65
2022/10/23 10:18:34;;;;;;;30.70;15.40;;;;;;;7.96;69.25;98704.25;4851718;28;20434;-66
2022/10/23 10:21:12;;;;;;;35.20;15.57;;;;;;;8.02;69.85;98705.16;4881541;28;20090;-65
2022/10/23 10:23:49;;;;;;;35.40;15.93;;;;;;;8.06;69.32;98697.56;4860098;28;20053;-66
2022/10/23 10:26:21;;;;;;;37.65;16.05;;;;;;;8.07;69.17;98689.41;4884219;28;20254;-66
2022/10/23 10:28:59;;;;;;;32.53;15.50;;;;;;;8.08;69.19;98695.47;4902272;28;21356;-66
2022/10/23 10:31:56;;;;;;;33.97;16.15;;;;;;;8.11;69.80;98705.56;4877625;28;20867;-63
2022/10/23 10:34:41;;;;;;;33.85;15.88;;;;;;;8.07;69.99;98691.25;4827963;28;20550;-64
2022/10/23 10:37:36;;;;;;;38.75;16.35;;;;;;;8.12;70.34;98689.50;4877805;28;20406;-62
2022/10/23 10:40:29;;;;;;;36.22;16.92;;;;;;;8.24;69.59;98688.63;4882575;28;20127;-64
2022/10/23 10:43:14;;;;;;;35.53;16.45;;;;;;;8.20;69.76;98677.72;4875734;28;20848;-64
2022/10/23 10:45:48;;;;;;;35.60;17.35;;;;;;;8.25;69.91;98679.66;4850262;28;20682;-64
2022/10/23 10:48:14;;;;;;;38.50;16.65;;;;;;;8.17;69.28;98668.44;4860960;28;20555;-64
2022/10/23 10:51:07;;;;;;;31.83;15.63;;;;;;;8.18;69.57;98672.72;4890995;28;20222;-64
2022/10/23 10:54:21;;;;;;;39.00;16.60;;;;;;;8.16;70.38;98671.34;4867172;28;20609;-65
2022/10/23 10:56:46;;;;;;;39.33;16.90;;;;;;;8.02;70.45;98665.56;4874125;28;20379;-64
2022/10/23 10:59:22;;;;;;;38.70;17.60;;;;;;;7.85;71.45;98657.63;4839060;28;20954;-63
2022/10/23 11:02:06;;;;;;;36.55;17.63;;;;;;;7.84;72.09;98663.13;4872943;28;20421;-64
2022/10/23 11:04:54;;;;;;;36.88;17.33;;;;;;;7.85;71.94;98649.72;4880582;28;20328;-65
2022/10/23 11:07:24;;;;;;;34.97;17.65;;;;;;;7.92;71.80;98653.00;4880233;28;20088;-64
2022/10/23 11:09:50;;;;;;;47.05;17.80;;;;;;;7.94;71.55;98652.75;4879118;28;20397;-63
2022/10/23 11:12:25;;;;;;;37.65;16.92;;;;;;;7.89;72.21;98650.03;4874284;28;20243;-64
2022/10/23 11:14:51;;;;;;;39.40;17.63;;;;;;;7.94;72.03;98636.91;4824845;28;20049;-64
2022/10/23 11:17:29;;;;;;;31.38;16.88;;;;;;;8.08;71.53;98645.34;4874916;28;20286;-64
2022/10/23 11:20:16;;;;;;;31.02;16.77;;;;;;;8.01;72.13;98631.50;4862841;28;21043;-62
2022/10/23 11:22:49;;;;;;;40.05;16.50;;;;;;;8.04;71.85;98633.66;4823510;28;20335;-65
2022/10/23 11:25:50;;;;;;;40.80;17.85;;;;;;;8.04;71.72;98637.09;4842932;28;20681;-64
2022/10/23 11:28:38;;;;;;;38.25;17.58;;;;;;;7.94;72.21;98636.91;4840077;28;20311;-63
2022/10/23 11:31:21;;;;;;;37.08;16.60;;;;;;;7.82;72.47;98621.16;4885586;28;20449;-66
2022/10/23 11:34:08;;;;;;;37.47;16.88;;;;;;;7.83;72.85;98616.69;4861085;28;20200;-64
2022/10/23 11:36:43;;;;;;;34.78;15.77;;;;;;;7.82;72.96;98618.50;4856973;28;20049;-66
2022/10/23 11:39:19;;;;;;;37.45;16.90;;;;;;;7.76;72.81;98606.28;4837625;28;21111;-65
2022/10/23 11:42:31;;;;;;;42.17;17.38;;;;;;;7.69;73.71;98606.44;4873884;28;20856;-64
2022/10/23 11:45:35;;;;;;;36.05;17.10;;;;;;;7.64;74.45;98616.88;4863675;28;20060;-64
2022/10/23 11:48:20;;;;;;;37.08;16.52;;;;;;;7.64;73.85;98616.88;4867845;28;21376;-65
2022/10/23 11:50:46;;;;;;;32.60;15.40;;;;;;;7.55;74.01;98615.66;4859907;28;20882;-65
2022/10/23 11:53:30;;;;;;;35.42;16.92;;;;;;;7.56;74.82;98613.81;4800962;28;20856;-65
2022/10/23 11:56:18;;;;;;;40.67;16.88;;;;;;;7.60;74.67;98593.88;4850326;28;20249;-65
2022/10/23 11:58:49;;;;;;;42.15;17.30;;;;;;;7.70;74.66;98594.03;4851351;28;21201;-64
2022/10/23 12:01:33;;;;;;;36.65;16.08;;;;;;;7.79;74.17;98603.16;4875305;28;20336;-65